Time;durP1;ratioP1;P1;durP2;ratioP2;P2;SDS_P1;SDS_P2;PMS_P1;PMS_P2;Temp;Humidity;BMP_temperature;BMP_pressure;BME280_temperature;BME280_humidity;BME280_pressure;Samples;Min_cycle;Max_cycle;Signal;HPM_P1;HPM_P2
2022/11/05 00:09:31;;;;;;;3.37;3.17;;;;;;;7.61;85.49;100995.33;457164;116;923155;-74
2022/11/05 00:10:37;;;;;;;3.55;3.34;;;;;;;7.60;85.41;100999.09;457119;116;922496;-75
2022/11/05 00:17:05;;;;;;;4.16;3.86;;;;;;;7.57;85.45;100994.02;449324;118;922596;-76
2022/11/05 00:18:08;;;;;;;4.28;3.98;;;;;;;7.59;85.52;100997.41;449508;117;922597;-75
2022/11/05 00:19:12;;;;;;;4.39;4.06;;;;;;;7.58;85.49;101001.13;449449;117;922506;-75
2022/11/05 00:20:17;;;;;;;4.06;3.76;;;;;;;7.59;85.50;101000.11;449196;118;922916;-75
2022/11/05 00:25:26;;;;;;;3.64;3.44;;;;;;;7.62;85.38;100994.30;449274;117;922637;-76
2022/11/05 00:26:33;;;;;;;3.50;3.30;;;;;;;7.64;85.38;100997.69;449292;118;922546;-76
2022/11/05 00:27:36;;;;;;;4.21;3.86;;;;;;;7.65;85.43;101001.24;449460;116;922498;-75
2022/11/05 00:28:42;;;;;;;4.25;3.93;;;;;;;7.66;85.49;100995.64;449431;118;922522;-75
2022/11/05 00:29:45;;;;;;;4.28;3.99;;;;;;;7.68;85.52;100996.28;451115;115;922614;-75
2022/11/05 00:30:48;;;;;;;3.83;3.63;;;;;;;7.70;85.53;100998.81;449417;118;923124;-76
2022/11/05 00:31:51;;;;;;;3.91;3.63;;;;;;;7.71;85.50;100992.36;449558;116;922618;-76
2022/11/05 00:32:58;;;;;;;4.27;3.97;;;;;;;7.72;85.32;100994.05;457265;115;922980;-76
2022/11/05 00:34:01;;;;;;;4.11;3.86;;;;;;;7.73;85.36;101001.98;457135;114;923009;-76
2022/11/05 00:35:06;;;;;;;3.37;3.17;;;;;;;7.73;85.25;101001.98;457397;116;922653;-75
2022/11/05 00:36:10;;;;;;;3.89;3.60;;;;;;;7.74;85.20;100998.25;448531;118;922971;-75
2022/11/05 00:37:13;;;;;;;3.84;3.56;;;;;;;7.75;85.19;100993.66;448658;116;922506;-75
2022/11/05 00:38:17;;;;;;;4.29;4.04;;;;;;;7.76;85.14;101001.62;448642;118;930460;-75
2022/11/05 00:39:20;;;;;;;3.93;3.67;;;;;;;7.76;85.02;101001.62;448817;118;922536;-74
2022/11/05 00:40:23;;;;;;;3.78;3.51;;;;;;;7.77;84.99;101006.03;448794;118;922499;-76
2022/11/05 00:41:26;;;;;;;4.07;3.77;;;;;;;7.76;84.97;101009.77;448801;118;922962;-76
2022/11/05 00:45:13;;;;;;;3.76;3.46;;;;;;;7.75;84.72;100999.09;440977;120;922556;-75
2022/11/05 00:46:16;;;;;;;3.99;3.74;;;;;;;7.73;84.78;101007.41;449476;118;922580;-75
2022/11/05 00:50:02;;;;;;;4.15;3.85;;;;;;;7.70;84.63;101004.24;449328;118;922674;-75
2022/11/05 00:51:06;;;;;;;4.18;3.90;;;;;;;7.68;84.54;101009.84;449456;118;922996;-75
2022/11/05 00:53:30;;;;;;;4.13;3.86;;;;;;;7.65;84.46;101015.66;449174;118;931012;-75
2022/11/05 00:54:33;;;;;;;4.57;4.24;;;;;;;7.64;84.48;101008.54;449463;117;922642;-74
2022/11/05 00:55:38;;;;;;;4.09;3.79;;;;;;;7.61;84.47;101014.32;449512;117;922549;-75
2022/11/05 00:56:41;;;;;;;4.12;3.83;;;;;;;7.60;84.44;101019.95;449311;118;922631;-75
2022/11/05 00:57:44;;;;;;;4.71;4.33;;;;;;;7.57;84.33;101013.02;449524;116;922846;-74
2022/11/05 00:58:47;;;;;;;4.87;4.54;;;;;;;7.55;84.34;101024.05;449561;117;922629;-75
2022/11/05 00:59:50;;;;;;;4.64;4.30;;;;;;;7.55;84.40;101020.52;449537;118;922900;-74
2022/11/05 01:00:57;;;;;;;4.14;3.84;;;;;;;7.52;84.41;101018.16;449532;118;922895;-75
2022/11/05 01:02:00;;;;;;;4.61;4.31;;;;;;;7.51;84.33;101021.89;449293;116;922876;-76
2022/11/05 01:03:15;;;;;;;4.07;3.77;;;;;;;7.51;84.31;101021.89;449587;117;922496;-75
2022/11/05 01:04:18;;;;;;;4.07;3.77;;;;;;;7.50;84.31;101020.20;449378;118;922565;-76
2022/11/05 01:05:22;;;;;;;4.09;3.81;;;;;;;7.49;84.32;101022.09;449492;118;923125;-75
2022/11/05 01:06:25;;;;;;;4.49;4.19;;;;;;;7.49;84.35;101023.96;451020;116;922833;-76
2022/11/05 01:07:28;;;;;;;4.56;4.31;;;;;;;7.49;84.31;101024.81;457376;114;922962;-75
2022/11/05 01:08:30;;;;;;;4.58;4.28;;;;;;;7.49;84.37;101018.53;457400;115;923072;-75
2022/11/05 01:09:33;;;;;;;3.99;3.71;;;;;;;7.49;84.44;101022.09;457396;115;922588;-75
2022/11/05 01:10:41;;;;;;;4.28;3.99;;;;;;;7.49;84.33;101018.53;457377;115;922421;-75
2022/11/05 01:11:45;;;;;;;4.07;3.82;;;;;;;7.49;84.41;101019.38;457165;116;922713;-75
2022/11/05 01:12:48;;;;;;;4.67;4.33;;;;;;;7.50;84.31;101028.34;457439;115;922544;-75
2022/11/05 01:13:51;;;;;;;4.55;4.25;;;;;;;7.51;84.32;101019.17;457347;115;923037;-75
2022/11/05 01:14:54;;;;;;;4.57;4.05;;;;;;;7.51;84.31;101019.17;457377;115;922502;-74
2022/11/05 01:16:01;;;;;;;4.94;4.59;;;;;;;7.51;84.28;101022.73;457369;115;922577;-75
2022/11/05 01:17:04;;;;;;;4.63;4.32;;;;;;;7.51;84.29;101025.45;456831;116;922524;-75
2022/11/05 01:18:07;;;;;;;4.38;4.04;;;;;;;7.51;84.36;101025.45;457305;116;922921;-76
2022/11/05 01:19:11;;;;;;;4.92;4.52;;;;;;;7.52;84.28;101026.30;457307;116;922986;-75
2022/11/05 01:20:15;;;;;;;4.05;3.78;;;;;;;7.52;84.28;101024.42;457178;116;922523;-75
2022/11/05 01:21:18;;;;;;;4.56;4.25;;;;;;;7.53;84.25;101025.27;457237;116;922675;-74
2022/11/05 01:22:21;;;;;;;3.96;3.72;;;;;;;7.54;84.39;101024.25;457260;116;922648;-75
2022/11/05 01:23:24;;;;;;;4.47;4.19;;;;;;;7.55;84.33;101026.75;457220;116;922612;-75
2022/11/05 01:24:26;;;;;;;4.30;4.03;;;;;;;7.57;84.32;101023.87;457275;116;922989;-75
2022/11/05 01:25:29;;;;;;;4.67;4.37;;;;;;;7.59;84.35;101026.41;457320;116;923005;-75
2022/11/05 01:26:32;;;;;;;4.65;4.33;;;;;;;7.60;84.32;101020.80;457250;116;922983;-76
2022/11/05 01:27:36;;;;;;;4.95;4.65;;;;;;;7.61;84.35;101019.75;457280;116;922944;-75
2022/11/05 01:28:39;;;;;;;4.55;4.24;;;;;;;7.62;84.32;101024.16;457238;116;922591;-76
2022/11/05 01:29:43;;;;;;;5.30;4.12;;;;;;;7.64;84.25;101026.69;456828;116;922561;-75
2022/11/05 01:30:47;;;;;;;4.48;4.18;;;;;;;7.64;84.25;101026.69;452988;117;922562;-75
2022/11/05 01:31:50;;;;;;;4.76;4.36;;;;;;;7.64;84.21;101022.11;453254;116;922802;-75
2022/11/05 01:32:53;;;;;;;5.09;4.69;;;;;;;7.63;84.16;101028.56;457348;115;930459;-75
2022/11/05 01:33:58;;;;;;;4.64;4.28;;;;;;;7.64;84.15;101029.41;460628;113;922967;-75
2022/11/05 01:35:02;;;;;;;3.98;3.72;;;;;;;7.65;84.11;101029.23;466376;113;923051;-74
2022/11/05 01:36:05;;;;;;;4.68;4.35;;;;;;;7.66;84.10;101032.79;466364;113;930377;-75
2022/11/05 01:37:08;;;;;;;4.62;4.33;;;;;;;7.65;84.02;101031.95;465989;113;922945;-75
2022/11/05 01:38:11;;;;;;;5.37;4.99;;;;;;;7.66;83.97;101038.22;465654;114;923316;-75
2022/11/05 01:39:14;;;;;;;4.43;4.14;;;;;;;7.67;84.04;101039.88;465663;114;922550;-75
2022/11/05 01:40:21;;;;;;;4.71;4.45;;;;;;;7.66;84.04;101035.50;465545;114;922713;-76
2022/11/05 01:41:24;;;;;;;4.72;4.41;;;;;;;7.66;83.93;101035.50;457239;116;930497;-76
2022/11/05 01:42:29;;;;;;;4.86;4.56;;;;;;;7.66;83.94;101032.79;457478;114;922866;-75
2022/11/05 01:43:54;;;;;;;5.28;4.96;;;;;;;7.65;83.89;101037.37;457288;116;922565;-76
2022/11/05 01:45:00;;;;;;;4.67;4.37;;;;;;;7.66;83.97;101035.50;457258;116;923402;-75
2022/11/05 01:46:03;;;;;;;5.39;5.09;;;;;;;7.65;83.90;101036.52;457247;116;922487;-75
2022/11/05 01:47:09;;;;;;;4.99;4.67;;;;;;;7.65;83.96;101040.08;457378;114;922506;-76
2022/11/05 01:48:15;;;;;;;5.78;5.38;;;;;;;7.64;83.93;101035.67;454228;116;922975;-75
2022/11/05 01:49:27;;;;;;;5.72;5.37;;;;;;;7.64;83.96;101035.67;457157;115;922598;-75
2022/11/05 01:50:34;;;;;;;5.81;5.44;;;;;;;7.64;83.79;101042.97;457249;116;922609;-75
2022/11/05 01:51:38;;;;;;;5.55;5.21;;;;;;;7.63;83.88;101044.84;457249;116;923087;-76
2022/11/05 01:52:41;;;;;;;6.02;5.62;;;;;;;7.63;83.88;101041.28;457248;114;922616;-75
2022/11/05 01:54:00;;;;;;;5.82;5.41;;;;;;;7.63;83.84;101035.86;457470;116;922498;-75
2022/11/05 01:55:04;;;;;;;6.34;5.88;;;;;;;7.63;83.92;101039.41;456631;115;922693;-76
2022/11/05 01:56:10;;;;;;;5.54;5.18;;;;;;;7.63;83.89;101042.12;457257;116;922814;-76
2022/11/05 01:57:14;;;;;;;5.97;5.57;;;;;;;7.64;83.88;101043.82;457159;114;930601;-75
2022/11/05 01:58:20;;;;;;;5.22;4.87;;;;;;;7.65;83.91;101042.80;457332;116;922547;-75
2022/11/05 01:59:29;;;;;;;5.25;4.95;;;;;;;7.65;83.86;101042.80;457181;116;930490;-75
2022/11/05 02:00:35;;;;;;;5.07;4.72;;;;;;;7.67;83.91;101042.59;457132;116;923039;-76
2022/11/05 02:01:38;;;;;;;5.29;4.96;;;;;;;7.68;84.00;101044.28;457275;115;922903;-75
2022/11/05 02:02:43;;;;;;;5.28;4.98;;;;;;;7.69;84.00;101041.39;457295;114;930830;-76
2022/11/05 02:03:48;;;;;;;4.86;4.56;;;;;;;7.71;83.89;101046.64;457372;116;923049;-75
2022/11/05 02:04:55;;;;;;;5.27;4.92;;;;;;;7.72;83.85;101054.58;457250;116;922851;-76
2022/11/05 02:06:01;;;;;;;5.76;5.39;;;;;;;7.73;83.88;101047.28;457311;116;922578;-75
2022/11/05 02:07:06;;;;;;;6.02;5.53;;;;;;;7.74;83.85;101043.55;457211;114;923130;-75
2022/11/05 02:08:13;;;;;;;6.46;5.96;;;;;;;7.74;83.88;101047.11;457216;116;922655;-76
2022/11/05 02:09:19;;;;;;;5.94;5.54;;;;;;;7.75;83.78;101050.66;457142;115;922518;-75
2022/11/05 02:10:23;;;;;;;6.37;5.97;;;;;;;7.75;83.72;101056.09;457231;116;922960;-75
2022/11/05 02:11:26;;;;;;;6.28;5.69;;;;;;;7.75;83.69;101058.81;457448;115;922453;-75
2022/11/05 02:12:29;;;;;;;6.39;5.99;;;;;;;7.75;83.78;101056.94;457414;114;922507;-76
2022/11/05 02:13:32;;;;;;;6.16;5.56;;;;;;;7.76;83.72;101058.64;457391;116;923137;-75
2022/11/05 02:14:35;;;;;;;5.44;5.09;;;;;;;7.74;83.68;101055.25;457401;115;922652;-76
2022/11/05 02:15:51;;;;;;;5.75;5.38;;;;;;;7.76;83.63;101057.79;457367;116;922841;-74
2022/11/05 02:17:21;;;;;;;5.76;5.34;;;;;;;7.76;83.65;101058.64;457245;116;922584;-76
2022/11/05 02:18:40;;;;;;;5.81;5.36;;;;;;;7.76;83.63;101064.06;457045;116;922971;-75
2022/11/05 02:20:01;;;;;;;6.00;5.60;;;;;;;7.75;83.67;101061.52;457110;116;923087;-75
2022/11/05 02:21:33;;;;;;;5.38;4.86;;;;;;;7.74;83.67;101066.11;457283;116;922826;-76
2022/11/05 02:23:10;;;;;;;5.37;5.07;;;;;;;7.73;83.71;101064.41;456961;116;922834;-75
2022/11/05 02:24:38;;;;;;;5.32;4.92;;;;;;;7.72;83.75;101065.44;457289;116;922993;-75
2022/11/05 02:26:00;;;;;;;6.11;5.71;;;;;;;7.71;83.83;101063.78;457259;116;923007;-76
2022/11/05 02:27:18;;;;;;;6.04;5.66;;;;;;;7.69;83.84;101064.97;440745;120;922750;-76
2022/11/05 02:28:34;;;;;;;5.73;5.42;;;;;;;7.68;83.83;101065.99;451819;116;922609;-75
2022/11/05 02:30:06;;;;;;;6.08;5.62;;;;;;;7.66;83.81;101071.63;457275;116;923118;-76
2022/11/05 02:31:19;;;;;;;6.17;5.76;;;;;;;7.64;83.81;101070.96;456208;116;922525;-76
2022/11/05 02:32:28;;;;;;;6.78;6.24;;;;;;;7.64;83.86;101070.11;456823;114;922671;-76
2022/11/05 02:33:55;;;;;;;6.32;5.90;;;;;;;7.74;83.96;101074.25;481683;110;946798;-77
2022/11/05 02:35:26;;;;;;;6.79;6.29;;;;;;;7.63;83.80;101076.56;446866;114;922824;-77
2022/11/05 02:36:38;;;;;;;6.43;6.03;;;;;;;7.62;83.77;101074.87;465439;114;923065;-77
2022/11/05 02:37:54;;;;;;;6.01;5.64;;;;;;;7.61;83.79;101086.78;457898;114;922575;-77
2022/11/05 02:39:17;;;;;;;7.33;6.83;;;;;;;7.59;83.66;101083.39;455849;116;922976;-74
2022/11/05 02:40:41;;;;;;;7.47;6.97;;;;;;;7.58;83.67;101089.84;457410;115;922550;-74
2022/11/05 02:41:57;;;;;;;7.31;6.61;;;;;;;7.56;83.52;101087.30;461615;115;923106;-75
2022/11/05 02:43:15;;;;;;;8.01;7.50;;;;;;;7.53;83.48;101085.81;460714;115;923002;-74
2022/11/05 02:44:24;;;;;;;7.11;6.60;;;;;;;7.51;83.49;101079.72;461190;115;922960;-75
2022/11/05 02:45:34;;;;;;;6.96;6.50;;;;;;;7.49;83.55;101081.78;461569;115;923329;-75
2022/11/05 02:46:46;;;;;;;7.60;7.01;;;;;;;7.48;83.53;101084.67;461533;115;922834;-75
2022/11/05 02:48:05;;;;;;;7.24;6.74;;;;;;;7.46;83.48;101084.00;460937;115;922715;-76
2022/11/05 02:49:28;;;;;;;7.03;6.53;;;;;;;7.46;83.40;101090.27;446855;115;922817;-76
2022/11/05 02:50:43;;;;;;;7.29;6.80;;;;;;;7.44;83.45;101088.78;461566;115;922564;-75
2022/11/05 02:51:57;;;;;;;7.80;7.30;;;;;;;7.44;83.54;101083.36;461166;115;922923;-75
2022/11/05 02:53:12;;;;;;;7.44;6.79;;;;;;;7.45;83.58;101093.16;461537;115;922605;-74
2022/11/05 02:54:34;;;;;;;7.47;6.98;;;;;;;7.44;83.65;101091.50;461427;115;923051;-75
2022/11/05 02:55:41;;;;;;;7.15;6.66;;;;;;;7.45;83.63;101087.73;461565;115;923065;-76
2022/11/05 02:56:47;;;;;;;7.64;7.19;;;;;;;7.46;83.56;101090.27;461565;115;922942;-74
2022/11/05 02:57:50;;;;;;;9.02;8.43;;;;;;;7.45;83.52;101091.30;461541;115;922895;-75
2022/11/05 02:58:53;;;;;;;7.66;7.16;;;;;;;7.47;83.65;101091.97;462365;114;922480;-75
2022/11/05 03:00:05;;;;;;;6.99;6.56;;;;;;;7.48;83.53;101096.38;465549;114;922548;-75
2022/11/05 03:01:11;;;;;;;7.32;6.82;;;;;;;7.49;83.61;101092.64;465320;114;922759;-75
2022/11/05 03:02:14;;;;;;;7.37;6.87;;;;;;;7.50;83.50;101098.88;465310;113;922536;-75
2022/11/05 03:03:21;;;;;;;8.19;7.59;;;;;;;7.51;83.54;101095.14;465515;114;922620;-76
2022/11/05 03:04:25;;;;;;;7.56;6.93;;;;;;;7.53;83.56;101096.66;465326;114;922763;-76
2022/11/05 03:05:31;;;;;;;7.76;7.19;;;;;;;7.54;83.62;101090.22;465426;114;922531;-75
2022/11/05 03:07:09;;;;;;;8.07;7.40;;;;;;;7.55;83.55;101093.78;464429;114;922721;-75
2022/11/05 03:08:16;;;;;;;7.57;7.07;;;;;;;7.57;83.49;101097.13;465309;112;922495;-76
2022/11/05 03:09:31;;;;;;;7.17;6.69;;;;;;;7.59;83.54;101099.67;463368;114;922570;-76
2022/11/05 03:10:41;;;;;;;7.52;7.01;;;;;;;7.59;83.57;101088.82;465356;114;922531;-75
2022/11/05 03:12:02;;;;;;;7.55;6.96;;;;;;;7.61;83.64;101101.16;465007;114;922493;-74
2022/11/05 03:13:24;;;;;;;9.00;8.29;;;;;;;7.63;83.69;101103.70;465302;114;923817;-75
2022/11/05 03:14:53;;;;;;;8.81;8.21;;;;;;;7.64;83.74;101106.24;465253;114;922629;-74
2022/11/05 03:15:59;;;;;;;9.67;9.04;;;;;;;7.66;83.64;101092.50;465319;114;922619;-74
2022/11/05 03:17:12;;;;;;;9.08;8.48;;;;;;;7.65;83.68;101086.22;464277;114;922549;-76
2022/11/05 03:18:25;;;;;;;7.54;7.08;;;;;;;7.66;83.66;101084.35;465333;114;923012;-76
2022/11/05 03:19:31;;;;;;;7.93;7.43;;;;;;;7.66;83.70;101087.91;465325;114;922957;-74
2022/11/05 03:20:38;;;;;;;8.19;7.62;;;;;;;7.68;83.70;101088.55;464748;114;922545;-75
2022/11/05 03:21:55;;;;;;;7.89;7.39;;;;;;;7.69;83.69;101092.96;465326;114;922979;-76
2022/11/05 03:23:25;;;;;;;7.98;7.38;;;;;;;7.70;83.69;101097.37;465327;114;922620;-76
2022/11/05 03:24:34;;;;;;;7.86;7.36;;;;;;;7.73;83.62;101098.86;465497;114;922741;-76
2022/11/05 03:25:47;;;;;;;8.48;7.83;;;;;;;7.74;83.61;101101.39;465364;114;922725;-77
2022/11/05 03:26:56;;;;;;;8.83;8.24;;;;;;;7.74;83.63;101101.39;465346;114;922461;-76
2022/11/05 03:28:03;;;;;;;8.99;8.39;;;;;;;7.76;83.49;101106.65;465205;114;922898;-76
2022/11/05 03:29:10;;;;;;;7.78;7.28;;;;;;;7.75;83.51;101099.53;465395;114;922966;-75
2022/11/05 03:30:17;;;;;;;8.22;7.72;;;;;;;7.76;83.52;101102.06;465415;114;922430;-75
2022/11/05 03:31:23;;;;;;;8.34;7.66;;;;;;;7.78;83.53;101105.42;465393;114;922611;-77
2022/11/05 03:32:30;;;;;;;8.32;7.82;;;;;;;7.79;83.52;101109.83;458065;114;922960;-75
2022/11/05 03:33:36;;;;;;;7.55;7.07;;;;;;;7.81;83.67;101105.07;455092;114;923342;-75
2022/11/05 03:34:53;;;;;;;8.36;7.77;;;;;;;7.84;83.53;101111.98;461566;115;922588;-75
2022/11/05 03:35:59;;;;;;;8.36;7.86;;;;;;;7.86;83.55;101116.22;452251;117;922632;-75
2022/11/05 03:37:05;;;;;;;8.02;7.38;;;;;;;7.88;83.56;101113.33;461511;115;923038;-75
2022/11/05 03:38:23;;;;;;;8.07;7.50;;;;;;;7.89;83.51;101117.70;461527;115;922635;-76
2022/11/05 03:39:30;;;;;;;7.66;7.16;;;;;;;7.90;83.35;101117.53;452221;117;922479;-75
2022/11/05 03:40:36;;;;;;;7.63;7.08;;;;;;;7.90;83.24;101114.81;461618;114;922455;-76
2022/11/05 03:41:42;;;;;;;8.28;7.78;;;;;;;7.92;83.21;101117.35;462022;114;922601;-75
2022/11/05 03:42:49;;;;;;;8.56;7.97;;;;;;;7.92;83.30;101120.07;462036;114;922935;-76
2022/11/05 03:43:55;;;;;;;8.46;7.96;;;;;;;7.92;83.15;101120.91;461970;114;922604;-75
2022/11/05 03:45:02;;;;;;;7.97;7.47;;;;;;;7.93;83.13;101121.77;461983;114;922628;-76
2022/11/05 03:46:21;;;;;;;8.82;8.22;;;;;;;7.95;83.10;101125.11;461918;114;922851;-76
2022/11/05 03:47:31;;;;;;;8.13;7.48;;;;;;;7.95;83.05;101125.96;461502;114;922595;-75
2022/11/05 03:48:38;;;;;;;8.69;8.10;;;;;;;7.95;82.99;101131.39;461896;114;922643;-76
2022/11/05 03:49:44;;;;;;;8.64;8.14;;;;;;;7.96;83.00;101129.52;461929;114;922860;-75
2022/11/05 03:51:00;;;;;;;8.89;8.29;;;;;;;7.95;82.91;101125.96;458868;114;922675;-76
2022/11/05 03:52:09;;;;;;;8.72;8.07;;;;;;;7.98;82.92;101126.63;461919;114;922744;-76
2022/11/05 03:53:15;;;;;;;9.38;8.76;;;;;;;7.98;82.98;101127.48;461889;114;922662;-77
2022/11/05 03:54:18;;;;;;;8.96;8.39;;;;;;;7.99;82.99;101128.33;461882;114;923274;-76
2022/11/05 03:55:24;;;;;;;8.57;7.96;;;;;;;8.01;82.96;101128.96;463289;114;922430;-75
2022/11/05 03:56:34;;;;;;;8.71;8.11;;;;;;;8.01;82.92;101129.81;465212;114;922991;-75
2022/11/05 03:57:40;;;;;;;9.28;8.64;;;;;;;8.03;82.83;101137.78;465207;113;922560;-76
2022/11/05 03:58:44;;;;;;;9.17;8.58;;;;;;;8.03;82.76;101132.34;465215;114;923382;-75
2022/11/05 03:59:49;;;;;;;9.40;8.64;;;;;;;8.03;82.83;101132.34;465353;114;923082;-76
2022/11/05 04:00:52;;;;;;;9.42;8.79;;;;;;;8.04;82.72;101136.76;465265;114;923003;-75
2022/11/05 04:01:55;;;;;;;8.98;8.39;;;;;;;8.03;82.74;101135.91;465489;113;922558;-76
2022/11/05 04:02:59;;;;;;;8.61;8.11;;;;;;;8.04;82.62;101139.47;465334;114;922663;-76
2022/11/05 04:04:04;;;;;;;9.18;8.58;;;;;;;8.04;82.52;101142.19;465408;114;922589;-75
2022/11/05 04:05:07;;;;;;;9.03;8.42;;;;;;;8.03;82.56;101137.78;465248;114;923501;-74
2022/11/05 04:14:20;;;;;;;8.97;8.47;;;;;;;8.02;82.61;101149.66;465224;114;922972;-76
2022/11/05 04:15:24;;;;;;;9.35;8.78;;;;;;;8.03;82.71;101145.92;465374;114;922519;-76
2022/11/05 04:17:48;;;;;;;9.13;8.43;;;;;;;8.01;82.60;101148.81;466339;113;922502;-76
2022/11/05 04:18:51;;;;;;;8.54;7.94;;;;;;;8.02;82.64;101161.38;466490;113;922521;-76
2022/11/05 04:24:08;;;;;;;9.91;8.91;;;;;;;8.01;82.50;101156.12;466287;113;922536;-76
2022/11/05 04:25:12;;;;;;;9.56;8.96;;;;;;;8.00;82.60;101160.70;466294;113;922740;-76
2022/11/05 04:26:15;;;;;;;10.18;9.36;;;;;;;7.99;82.51;101156.33;466403;113;922651;-76
2022/11/05 04:27:18;;;;;;;9.79;9.19;;;;;;;7.99;82.51;101159.05;466477;113;922753;-76
2022/11/05 04:30:17;;;;;;;8.97;8.37;;;;;;;7.99;82.49;101164.47;466511;113;922896;-76
2022/11/05 04:30:27;;;;;;;9.43;8.83;;;;;;;8.00;82.53;101157.14;463445;113;922699;-75
2022/11/05 04:30:40;;;;;;;9.52;8.92;;;;;;;8.00;82.59;101155.27;441179;116;922778;-75
2022/11/05 04:31:43;;;;;;;9.46;8.86;;;;;;;8.01;82.49;101156.97;457396;114;922812;-76
2022/11/05 04:33:07;;;;;;;9.88;9.28;;;;;;;8.01;82.43;101162.39;465440;114;922940;-77
2022/11/05 04:34:10;;;;;;;9.43;8.83;;;;;;;8.02;82.41;101155.09;465443;113;923453;-75
2022/11/05 04:35:13;;;;;;;10.94;10.12;;;;;;;8.02;82.36;101172.23;465385;114;922593;-75
2022/11/05 04:36:18;;;;;;;9.27;8.65;;;;;;;8.02;82.35;101166.80;465186;114;922991;-76
2022/11/05 04:37:21;;;;;;;9.68;9.08;;;;;;;8.02;82.38;101169.52;465353;114;922947;-76
2022/11/05 04:38:24;;;;;;;9.19;8.53;;;;;;;8.03;82.25;101170.38;465388;114;922789;-76
2022/11/05 04:39:27;;;;;;;9.50;8.77;;;;;;;8.04;82.31;101172.91;465395;114;922517;-76
2022/11/05 04:40:30;;;;;;;9.24;8.61;;;;;;;8.04;82.26;101172.91;464774;114;923736;-76
2022/11/05 04:41:33;;;;;;;9.86;9.16;;;;;;;8.04;82.37;101175.63;462258;114;922478;-75
2022/11/05 04:42:36;;;;;;;9.79;9.07;;;;;;;8.06;82.35;101178.13;462264;114;922948;-77
2022/11/05 04:43:39;;;;;;;9.22;8.62;;;;;;;8.07;82.31;101168.96;462301;114;922500;-74
2022/11/05 04:44:41;;;;;;;10.18;9.54;;;;;;;8.08;82.40;101178.80;462251;114;923104;-75
2022/11/05 04:45:45;;;;;;;9.50;8.90;;;;;;;8.08;82.32;101168.79;462317;114;922485;-75
2022/11/05 04:46:47;;;;;;;9.62;9.03;;;;;;;8.10;82.31;101171.33;462214;114;922985;-78
2022/11/05 04:47:50;;;;;;;10.06;9.38;;;;;;;8.11;82.31;101181.14;462306;114;922535;-75
2022/11/05 04:48:53;;;;;;;10.04;9.41;;;;;;;8.12;82.26;101178.25;462261;114;922489;-75
2022/11/05 04:49:56;;;;;;;9.48;8.88;;;;;;;8.13;82.28;101184.53;462246;114;922436;-76
2022/11/05 04:50:59;;;;;;;10.38;9.69;;;;;;;8.13;82.24;101179.09;462220;114;922475;-76
2022/11/05 04:52:02;;;;;;;10.96;10.22;;;;;;;8.14;82.29;101178.08;466203;113;923005;-76
2022/11/05 04:53:05;;;;;;;10.64;10.04;;;;;;;8.14;82.24;101178.92;467056;113;922563;-76
2022/11/05 04:54:08;;;;;;;11.59;10.82;;;;;;;8.16;82.33;101181.46;467074;113;922456;-76
2022/11/05 04:55:11;;;;;;;11.92;11.13;;;;;;;8.16;82.33;101182.27;467038;113;922991;-75
2022/11/05 04:56:21;;;;;;;11.39;10.69;;;;;;;8.17;82.31;101183.97;466952;113;922947;-76
2022/11/05 04:57:24;;;;;;;12.59;11.69;;;;;;;8.18;82.35;101187.53;466589;113;923004;-75
2022/11/05 04:58:27;;;;;;;13.93;13.04;;;;;;;8.18;82.24;101185.66;467032;113;922759;-76
2022/11/05 04:59:30;;;;;;;12.75;11.71;;;;;;;8.20;82.36;101188.20;467023;113;922559;-76
2022/11/05 05:00:33;;;;;;;12.74;11.87;;;;;;;8.21;82.32;101195.33;467021;113;923018;-76
2022/11/05 05:01:36;;;;;;;11.83;11.14;;;;;;;8.21;82.16;101203.48;467047;113;922894;-76
2022/11/05 05:02:39;;;;;;;13.07;12.27;;;;;;;8.21;82.06;101198.89;466998;113;922737;-75
2022/11/05 05:03:42;;;;;;;14.88;13.88;;;;;;;8.20;81.98;101209.94;467018;113;922906;-75
2022/11/05 05:04:45;;;;;;;14.47;13.61;;;;;;;8.19;81.91;101209.09;466965;113;923042;-76
2022/11/05 05:05:48;;;;;;;15.01;14.11;;;;;;;8.19;81.91;101210.95;467054;113;922607;-76
2022/11/05 05:06:53;;;;;;;14.74;13.84;;;;;;;8.18;81.98;101211.98;466654;112;922500;-75
2022/11/05 05:08:03;;;;;;;14.39;13.49;;;;;;;8.18;81.99;101207.39;467022;113;922721;-75
2022/11/05 05:09:06;;;;;;;14.32;13.42;;;;;;;8.18;82.01;101206.55;466531;113;922701;-75
2022/11/05 05:10:10;;;;;;;14.76;13.84;;;;;;;8.19;82.00;101203.66;466929;113;930330;-76
2022/11/05 05:11:15;;;;;;;14.61;13.71;;;;;;;8.18;81.96;101207.39;467027;113;922662;-75
2022/11/05 05:12:18;;;;;;;13.51;12.68;;;;;;;8.20;82.04;101207.22;466839;112;922580;-76
2022/11/05 05:13:22;;;;;;;14.18;13.24;;;;;;;8.21;81.97;101217.06;467021;113;922947;-76
2022/11/05 05:14:25;;;;;;;13.84;12.86;;;;;;;8.22;81.94;101219.57;467104;113;922848;-76
2022/11/05 05:15:28;;;;;;;14.59;13.64;;;;;;;8.22;81.91;101222.29;467103;113;922643;-75
2022/11/05 05:16:31;;;;;;;13.39;12.59;;;;;;;8.22;81.96;101219.57;467014;113;922662;-77
2022/11/05 09:10:01;;;;;;;22.09;20.34;;;;;;;6.65;83.46;101415.14;476570;108;943814;-76
2022/11/05 09:11:04;;;;;;;19.12;17.72;;;;;;;6.66;83.17;101424.97;463092;114;922592;-76
2022/11/05 09:12:07;;;;;;;20.04;18.62;;;;;;;6.73;82.86;101417.02;462951;114;922522;-77
2022/11/05 09:13:12;;;;;;;19.84;18.34;;;;;;;6.80;82.68;101415.30;462600;114;930510;-75
2022/11/05 09:14:17;;;;;;;18.84;17.38;;;;;;;6.85;82.47;101424.61;462416;114;922962;-75
2022/11/05 09:15:22;;;;;;;19.51;17.77;;;;;;;6.91;82.30;101423.09;463012;114;922587;-75
2022/11/05 09:16:25;;;;;;;17.79;16.50;;;;;;;6.95;82.15;101425.28;463129;114;922625;-77
2022/11/05 09:17:28;;;;;;;18.53;17.19;;;;;;;7.02;82.04;101430.88;463523;114;922668;-79
2022/11/05 09:18:32;;;;;;;19.32;17.81;;;;;;;7.07;81.88;101434.77;463512;114;930523;-78
2022/11/05 09:19:35;;;;;;;18.13;16.75;;;;;;;7.11;81.69;101436.10;463472;114;922608;-76
2022/11/05 09:20:40;;;;;;;18.53;17.09;;;;;;;7.16;81.58;101435.61;463253;114;922456;-75
2022/11/05 09:21:44;;;;;;;18.16;16.76;;;;;;;7.21;81.44;101430.52;463542;114;922997;-76
2022/11/05 09:22:47;;;;;;;16.44;15.21;;;;;;;7.25;81.32;101431.86;463706;114;922483;-77
2022/11/05 09:23:50;;;;;;;17.65;16.39;;;;;;;7.31;81.25;101433.03;463736;114;923002;-72
2022/11/05 09:24:53;;;;;;;15.45;14.37;;;;;;;7.36;80.93;101427.94;463657;114;923182;-73
2022/11/05 09:25:56;;;;;;;16.26;14.94;;;;;;;7.39;80.68;101428.42;463694;114;922478;-73
2022/11/05 09:26:59;;;;;;;17.29;16.00;;;;;;;7.41;80.42;101434.53;463687;114;922499;-73
2022/11/05 09:28:17;;;;;;;16.87;15.39;;;;;;;7.43;80.13;101434.38;463686;114;922479;-73
2022/11/05 09:29:27;;;;;;;17.69;16.37;;;;;;;7.57;80.00;101432.79;480512;110;947102;-76
2022/11/05 09:30:30;;;;;;;16.57;15.34;;;;;;;7.48;79.94;101431.98;460521;114;922650;-76
2022/11/05 09:31:33;;;;;;;16.60;15.31;;;;;;;7.51;79.82;101437.89;459925;115;922502;-72
2022/11/05 09:32:36;;;;;;;16.07;14.98;;;;;;;7.55;79.86;101438.41;464831;114;922888;-73
2022/11/05 09:33:40;;;;;;;15.48;14.29;;;;;;;7.60;79.80;101429.74;466011;113;922571;-73
2022/11/05 09:34:43;;;;;;;14.86;13.76;;;;;;;7.65;79.74;101430.06;469887;113;922565;-73
2022/11/05 09:35:46;;;;;;;15.10;14.00;;;;;;;7.70;79.52;101430.37;469856;113;930387;-74
2022/11/05 09:36:49;;;;;;;15.15;14.05;;;;;;;7.73;79.35;101430.86;470005;113;923053;-71
2022/11/05 09:37:52;;;;;;;14.84;13.67;;;;;;;7.76;79.17;101425.10;470033;112;922487;-73
2022/11/05 09:38:57;;;;;;;14.54;13.54;;;;;;;7.79;79.00;101435.59;469032;113;923452;-72
2022/11/05 09:40:00;;;;;;;14.86;13.79;;;;;;;7.82;78.90;101437.97;469985;113;922514;-71
2022/11/05 09:41:07;;;;;;;14.44;13.29;;;;;;;7.84;78.81;101425.05;464421;113;923010;-73
2022/11/05 09:42:14;;;;;;;14.20;13.26;;;;;;;7.88;78.74;101436.42;462071;114;922662;-73